createdAt,value
2023-04-09T00:00:18.776Z,30.0962
2023-04-09T00:01:22.935Z,30.1274
2023-04-09T00:02:26.905Z,30.1242
2023-04-09T00:03:30.813Z,30.0318
2023-04-09T00:04:34.765Z,30.0469
2023-04-09T00:05:38.627Z,30.0203
2023-04-09T00:06:42.535Z,30.0483
2023-04-09T00:07:46.425Z,30.0510
2023-04-09T00:08:50.813Z,30.0778
2023-04-09T00:09:54.775Z,30.0820
2023-04-09T00:10:58.914Z,30.0600
2023-04-09T00:12:02.899Z,30.0363
2023-04-09T00:13:06.723Z,30.0553
2023-04-09T00:14:10.627Z,30.0812
2023-04-09T00:15:23.996Z,30.1076
2023-04-09T00:16:19.054Z,30.1737
2023-04-09T00:17:22.958Z,30.1954
2023-04-09T00:18:26.836Z,30.1879
2023-04-09T00:19:30.718Z,30.1256
2023-04-09T00:20:34.617Z,30.1445
2023-04-09T00:21:38.850Z,30.1480
2023-04-09T00:22:42.746Z,30.1696
2023-04-09T00:23:42.942Z,30.1582
2023-04-09T00:24:46.848Z,30.1471
2023-04-09T00:25:50.738Z,30.0096
2023-04-09T00:26:54.639Z,30.1167
2023-04-09T00:27:58.515Z,30.1612
2023-04-09T00:29:02.418Z,30.1821
2023-04-09T00:30:06.308Z,30.1737
2023-04-09T00:31:10.225Z,30.0894
2023-04-09T00:32:14.084Z,30.1559
2023-04-09T00:33:17.990Z,30.1822
2023-04-09T00:34:21.880Z,30.1240
2023-04-09T00:35:25.802Z,30.0892
2023-04-09T00:36:29.900Z,30.1208
2023-04-09T00:37:33.809Z,30.1719
2023-04-09T00:38:37.709Z,30.1888
2023-04-09T00:39:41.668Z,30.1841
2023-04-09T00:40:45.504Z,30.1765
2023-04-09T00:41:49.410Z,30.1897
2023-04-09T00:42:53.297Z,30.1940
2023-04-09T00:43:57.233Z,30.2081
2023-04-09T00:45:01.131Z,30.2041
2023-04-09T00:46:05.046Z,30.2097
2023-04-09T00:47:08.953Z,30.2198
2023-04-09T00:48:12.824Z,30.1970
2023-04-09T00:49:16.728Z,30.2282
2023-04-09T00:50:20.636Z,30.2320
2023-04-09T00:51:24.543Z,30.2239
2023-04-09T00:52:28.414Z,30.1983
2023-04-09T00:53:32.323Z,30.2089
2023-04-09T00:54:36.234Z,30.2291
2023-04-09T00:55:40.141Z,30.2318
2023-04-09T00:56:44.010Z,30.2831
2023-04-09T00:57:47.935Z,30.3115
2023-04-09T00:58:52.377Z,30.3048
2023-04-09T00:59:56.443Z,30.2716
2023-04-09T01:01:00.352Z,30.1950
2023-04-09T01:02:04.276Z,30.2392
2023-04-09T01:03:08.289Z,30.2639
2023-04-09T01:04:12.211Z,30.2846
2023-04-09T01:05:16.112Z,30.3051
2023-04-09T01:06:20.176Z,30.3036
2023-04-09T01:07:24.063Z,30.2959
2023-04-09T01:08:27.965Z,30.2950
2023-04-09T01:09:31.847Z,30.3081
2023-04-09T01:10:35.762Z,30.3075
2023-04-09T01:11:39.642Z,30.3212
2023-04-09T01:12:43.542Z,30.3119
2023-04-09T01:13:47.760Z,30.3126
2023-04-09T01:14:51.659Z,30.3213
2023-04-09T01:15:55.642Z,30.3264
2023-04-09T01:16:59.542Z,30.3396
2023-04-09T01:18:03.489Z,30.3423
2023-04-09T01:19:07.343Z,30.3341
2023-04-09T01:20:11.229Z,30.2939
2023-04-09T01:21:15.355Z,30.2862
2023-04-09T01:22:19.235Z,30.2910
2023-04-09T01:23:23.138Z,30.2962
2023-04-09T01:24:27.249Z,30.2953
2023-04-09T01:25:31.150Z,30.3016
2023-04-09T01:26:35.058Z,30.2617
2023-04-09T01:27:38.968Z,30.2033
2023-04-09T01:28:42.868Z,30.2062
2023-04-09T01:29:46.760Z,30.2186
2023-04-09T01:30:50.717Z,30.2375
2023-04-09T01:31:54.833Z,30.1629
2023-04-09T01:32:58.805Z,30.1255
2023-04-09T01:34:02.873Z,30.1878
2023-04-09T01:35:06.778Z,30.2470
2023-04-09T01:36:10.676Z,30.2855
2023-04-09T01:37:14.564Z,30.3110
2023-04-09T01:38:18.471Z,30.3147
2023-04-09T01:39:22.604Z,30.3069
2023-04-09T01:40:26.508Z,30.3163
2023-04-09T01:41:30.728Z,30.2997
2023-04-09T01:42:34.617Z,30.2546
2023-04-09T01:43:38.506Z,30.2648
2023-04-09T01:44:42.419Z,30.2542
2023-04-09T01:45:46.327Z,30.2518
2023-04-09T01:46:50.299Z,30.2817
2023-04-09T01:47:54.241Z,30.3012
2023-04-09T01:48:58.361Z,30.2977
2023-04-09T01:50:02.317Z,30.2977
2023-04-09T01:51:06.287Z,30.2603
2023-04-09T01:52:10.192Z,30.2731
2023-04-09T01:53:14.090Z,30.2693
2023-04-09T01:54:17.983Z,30.2559
2023-04-09T01:55:21.885Z,30.2648
2023-04-09T01:56:25.982Z,30.2754
2023-04-09T01:57:29.876Z,30.2891
2023-04-09T01:58:33.781Z,30.2925
2023-04-09T01:59:37.965Z,30.2653
2023-04-09T02:00:41.859Z,30.1916
2023-04-09T02:01:45.833Z,30.1988
2023-04-09T02:02:49.858Z,30.1968
2023-04-09T02:03:53.877Z,30.1869
2023-04-09T02:04:57.777Z,30.1811
2023-04-09T02:05:58.126Z,30.1841
2023-04-09T02:07:02.012Z,30.1637
2023-04-09T02:08:05.913Z,30.1938
2023-04-09T02:09:09.997Z,30.1827
2023-04-09T02:11:18.988Z,30.2526
2023-04-09T02:11:18.988Z,30.1852
2023-04-09T02:12:22.866Z,30.2618
2023-04-09T02:13:26.771Z,30.2555
2023-04-09T02:14:30.668Z,30.2699
2023-04-09T02:15:34.585Z,30.2686
2023-04-09T02:16:38.747Z,30.2475
2023-04-09T02:17:42.656Z,30.2489
2023-04-09T02:18:46.779Z,30.2545
2023-04-09T02:19:50.650Z,30.2545
2023-04-09T02:20:54.545Z,30.2822
2023-04-09T02:21:58.437Z,30.3066
2023-04-09T02:23:02.345Z,30.3089
2023-04-09T02:24:06.259Z,30.3242
2023-04-09T02:25:10.172Z,30.2813
2023-04-09T02:26:14.051Z,30.2588
2023-04-09T02:27:18.007Z,30.2125
2023-04-09T02:28:21.874Z,30.1642
2023-04-09T02:29:25.797Z,30.1866
2023-04-09T02:30:29.664Z,30.1953
2023-04-09T02:31:33.866Z,30.1853
2023-04-09T02:32:37.831Z,30.1971
2023-04-09T02:33:41.703Z,30.2265
2023-04-09T02:34:45.601Z,30.2393
2023-04-09T02:35:49.546Z,30.2417
2023-04-09T02:36:53.404Z,30.2436
2023-04-09T02:37:57.318Z,30.2328
2023-04-09T02:39:01.438Z,30.2362
2023-04-09T02:40:05.373Z,30.2485
2023-04-09T02:41:09.257Z,30.2508
2023-04-09T02:42:13.357Z,30.2417
2023-04-09T02:43:17.273Z,30.2583
2023-04-09T02:44:21.146Z,30.2517
2023-04-09T02:45:25.062Z,30.2364
2023-04-09T02:46:29.013Z,30.2170
2023-04-09T02:47:32.968Z,30.2206
2023-04-09T02:48:36.839Z,30.2190
2023-04-09T02:49:40.742Z,30.1983
2023-04-09T02:50:44.664Z,30.1261
2023-04-09T02:51:48.623Z,30.1432
2023-04-09T02:52:52.531Z,30.1871
2023-04-09T02:53:56.732Z,30.1522
2023-04-09T02:55:00.644Z,30.0914
2023-04-09T02:56:04.525Z,30.0347
2023-04-09T02:57:08.437Z,30.0689
2023-04-09T02:58:12.312Z,30.0155
2023-04-09T02:59:16.222Z,30.0488
2023-04-09T03:00:20.117Z,29.9836
2023-04-09T03:01:24.035Z,29.9687
2023-04-09T03:02:28.091Z,29.9712
2023-04-09T03:03:32.098Z,30.0421
2023-04-09T03:04:36.033Z,30.0242
2023-04-09T03:05:39.937Z,29.9842
2023-04-09T03:06:44.053Z,29.9495
2023-04-09T03:07:47.959Z,29.9957
2023-04-09T03:08:52.281Z,29.9471
2023-04-09T03:09:56.306Z,29.9652
2023-04-09T03:11:00.184Z,29.9309
2023-04-09T03:12:04.090Z,30.0458
2023-04-09T03:13:07.982Z,30.0844
2023-04-09T03:14:11.879Z,30.0940
2023-04-09T03:15:15.785Z,30.0732
2023-04-09T03:16:19.724Z,30.0931
2023-04-09T03:17:23.593Z,30.0890
2023-04-09T03:18:27.509Z,30.0967
2023-04-09T03:19:31.395Z,30.1180
2023-04-09T03:20:35.291Z,30.1376
2023-04-09T03:21:39.184Z,30.1363
2023-04-09T03:22:43.089Z,30.1232
2023-04-09T03:23:46.974Z,30.1093
2023-04-09T03:24:50.874Z,30.0839
2023-04-09T03:25:54.774Z,30.1020
2023-04-09T03:26:58.887Z,30.1277
2023-04-09T03:28:02.830Z,30.0913
2023-04-09T03:29:06.690Z,30.1304
2023-04-09T03:30:10.595Z,30.1520
2023-04-09T03:31:14.554Z,30.1397
2023-04-09T03:32:19.174Z,30.1392
2023-04-09T03:33:23.053Z,30.1310
2023-04-09T03:34:26.963Z,30.1257
2023-04-09T03:35:30.884Z,30.1194
2023-04-09T03:36:34.777Z,30.1214
2023-04-09T03:37:38.660Z,30.1042
2023-04-09T03:38:42.576Z,30.0873
2023-04-09T03:39:46.693Z,30.0800
2023-04-09T03:40:50.606Z,30.0836
2023-04-09T03:41:54.710Z,30.0742
2023-04-09T03:42:58.632Z,30.0684
2023-04-09T03:44:02.529Z,30.0442
2023-04-09T03:45:06.424Z,30.0233
2023-04-09T03:46:10.327Z,30.0136
2023-04-09T03:47:14.442Z,30.0047
2023-04-09T03:48:18.342Z,30.0147
2023-04-09T03:49:22.472Z,30.0185
2023-04-09T03:50:26.354Z,30.0075
2023-04-09T03:51:30.265Z,30.0066
2023-04-09T03:52:34.153Z,29.9987
2023-04-09T03:53:38.087Z,29.9935
2023-04-09T03:54:42.291Z,29.9755
2023-04-09T03:55:46.198Z,29.9701
2023-04-09T03:56:50.342Z,29.9467
2023-04-09T03:57:54.247Z,29.9402
2023-04-09T03:58:58.174Z,29.9523
2023-04-09T04:00:02.073Z,29.9580
2023-04-09T04:01:05.954Z,29.9587
2023-04-09T04:02:09.934Z,29.9608
2023-04-09T04:03:13.984Z,29.9598
2023-04-09T04:04:20.468Z,29.9634
2023-04-09T04:05:20.558Z,29.9670
2023-04-09T04:06:24.468Z,29.9687
2023-04-09T04:07:28.363Z,29.9632
2023-04-09T04:08:32.280Z,29.9425
2023-04-09T04:09:36.176Z,29.9143
2023-04-09T04:10:40.084Z,29.9002
2023-04-09T04:11:43.973Z,29.8944
2023-04-09T04:12:47.942Z,29.8854
2023-04-09T04:13:51.820Z,29.8773
2023-04-09T04:14:55.739Z,29.8450
2023-04-09T04:15:59.664Z,29.7510
2023-04-09T04:17:03.761Z,29.6776
2023-04-09T04:18:07.648Z,29.6494
2023-04-09T04:19:11.874Z,29.6078
2023-04-09T04:20:15.752Z,29.5743
2023-04-09T04:21:19.657Z,29.5108
2023-04-09T04:22:26.112Z,29.4082
2023-04-09T04:23:24.909Z,29.3085
2023-04-09T04:24:28.799Z,29.2378
2023-04-09T04:25:32.712Z,29.1889
2023-04-09T04:26:36.612Z,29.1778
2023-04-09T04:27:40.525Z,29.1869
2023-04-09T04:28:44.420Z,29.2312
2023-04-09T04:29:44.515Z,29.2575
2023-04-09T04:30:48.406Z,29.2839
2023-04-09T04:31:52.347Z,29.2905
2023-04-09T04:32:56.240Z,29.3100
2023-04-09T04:34:00.195Z,29.3058
2023-04-09T04:35:04.271Z,29.3170
2023-04-09T04:36:08.166Z,29.3141
2023-04-09T04:37:12.292Z,29.3422
2023-04-09T04:38:16.181Z,29.3472
2023-04-09T04:39:20.095Z,29.3501
2023-04-09T04:40:23.960Z,29.3586
2023-04-09T04:41:27.869Z,29.3785
2023-04-09T04:42:31.961Z,29.3827
2023-04-09T04:43:35.867Z,29.3794
2023-04-09T04:44:39.979Z,29.3506
2023-04-09T04:45:43.926Z,29.3378
2023-04-09T04:46:47.799Z,29.3473
2023-04-09T04:47:51.716Z,29.3492
2023-04-09T04:48:55.587Z,29.3492
2023-04-09T04:49:59.501Z,29.3298
2023-04-09T04:51:03.373Z,29.3283
2023-04-09T04:52:07.614Z,29.3490
2023-04-09T04:53:11.499Z,29.3479
2023-04-09T04:54:15.399Z,29.3519
2023-04-09T04:55:19.289Z,29.3300
2023-04-09T04:56:23.194Z,29.3188
2023-04-09T04:57:27.085Z,29.3197
2023-04-09T04:58:31.005Z,29.3133
2023-04-09T04:59:35.111Z,29.3039
2023-04-09T05:00:39.020Z,29.2994
2023-04-09T05:01:43.015Z,29.3089
2023-04-09T05:02:47.263Z,29.3062
2023-04-09T05:03:51.216Z,29.2979
2023-04-09T05:04:55.192Z,29.2813
2023-04-09T05:05:59.078Z,29.2946
2023-04-09T05:07:02.958Z,29.3076
2023-04-09T05:08:06.872Z,29.3021
2023-04-09T05:09:10.765Z,29.2932
2023-04-09T05:10:14.660Z,29.2983
2023-04-09T05:11:18.536Z,29.2851
2023-04-09T05:12:22.690Z,29.3072
2023-04-09T05:13:26.572Z,29.3260
2023-04-09T05:14:30.484Z,29.2565
2023-04-09T05:15:34.361Z,29.1517
2023-04-09T05:16:38.291Z,29.1105
2023-04-09T05:17:42.203Z,29.0084
2023-04-09T05:18:46.106Z,28.9838
2023-04-09T05:19:49.999Z,28.9447
2023-04-09T05:20:53.912Z,28.9298
2023-04-09T05:21:58.004Z,28.9178
2023-04-09T05:23:01.930Z,28.9111
2023-04-09T05:24:05.818Z,28.8944
2023-04-09T05:25:09.701Z,28.8992
2023-04-09T05:26:13.590Z,28.8965
2023-04-09T05:27:17.502Z,28.8863
2023-04-09T05:28:21.401Z,28.8675
2023-04-09T05:29:26.890Z,28.8458
2023-04-09T05:30:30.800Z,28.8171
2023-04-09T05:31:34.681Z,28.8147
2023-04-09T05:32:38.629Z,28.7902
2023-04-09T05:33:42.487Z,28.7678
2023-04-09T05:34:46.395Z,28.7480
2023-04-09T05:35:50.301Z,28.7234
2023-04-09T05:36:54.208Z,28.6783
2023-04-09T05:37:58.293Z,28.6464
2023-04-09T05:39:02.196Z,28.6257
2023-04-09T05:40:06.414Z,28.5359
2023-04-09T05:41:10.314Z,28.4961
2023-04-09T05:42:14.235Z,28.4054
2023-04-09T05:43:18.105Z,28.3345
2023-04-09T05:44:22.007Z,28.2723
2023-04-09T05:45:25.901Z,28.2061
2023-04-09T05:46:29.911Z,28.1621
2023-04-09T05:47:33.886Z,28.0879
2023-04-09T05:48:37.772Z,28.0210
2023-04-09T05:49:41.640Z,27.9615
2023-04-09T05:50:54.475Z,27.9128
2023-04-09T05:51:50.026Z,27.8506
2023-04-09T05:52:53.934Z,27.7710
2023-04-09T05:53:57.820Z,27.6690
2023-04-09T05:55:01.766Z,27.5576
2023-04-09T05:56:05.609Z,27.5057
2023-04-09T05:57:09.760Z,27.4389
2023-04-09T05:58:13.637Z,27.3441
2023-04-09T05:59:17.536Z,27.2797
2023-04-09T06:00:21.637Z,27.2510
2023-04-09T06:01:25.548Z,27.2691
2023-04-09T06:02:29.485Z,27.2528
2023-04-09T06:03:33.470Z,27.2307
2023-04-09T06:04:37.433Z,27.2303
2023-04-09T06:05:41.330Z,27.2493
2023-04-09T06:06:45.205Z,27.2955
2023-04-09T06:07:49.120Z,27.3828
2023-04-09T06:08:53.014Z,27.4512
2023-04-09T06:09:56.910Z,27.5155
2023-04-09T06:11:00.815Z,27.5599
2023-04-09T06:12:04.754Z,27.5720
2023-04-09T06:13:08.600Z,27.5974
2023-04-09T06:14:12.509Z,27.6243
2023-04-09T06:15:16.398Z,27.6458
2023-04-09T06:16:20.335Z,27.6717
2023-04-09T06:17:20.568Z,27.6765
2023-04-09T06:18:24.440Z,27.6685
2023-04-09T06:19:28.345Z,27.6398
2023-04-09T06:20:32.235Z,27.6188
2023-04-09T06:21:36.131Z,27.6062
2023-04-09T06:22:40.012Z,27.6198
2023-04-09T06:23:43.900Z,27.6066
2023-04-09T06:24:48.132Z,27.5857
2023-04-09T06:25:52.056Z,27.5722
2023-04-09T06:26:55.946Z,27.5497
2023-04-09T06:27:59.827Z,27.5546
2023-04-09T06:29:03.695Z,27.5725
2023-04-09T06:30:07.626Z,27.5691
2023-04-09T06:31:11.537Z,27.5419
2023-04-09T06:32:15.624Z,27.5245
2023-04-09T06:33:19.595Z,27.5136
2023-04-09T06:34:23.493Z,27.4768
2023-04-09T06:35:27.399Z,27.4007
2023-04-09T06:36:31.295Z,27.3508
2023-04-09T06:37:35.192Z,27.3459
2023-04-09T06:38:39.086Z,27.3244
2023-04-09T06:39:50.553Z,27.3252
2023-04-09T06:40:47.480Z,27.2912
2023-04-09T06:41:51.373Z,27.3052
2023-04-09T06:42:55.262Z,27.3237
2023-04-09T06:43:59.145Z,27.3325
2023-04-09T06:45:03.060Z,27.3506
2023-04-09T06:46:06.958Z,27.3799
2023-04-09T06:47:10.850Z,27.3639
2023-04-09T06:48:14.951Z,27.3444
2023-04-09T06:49:18.848Z,27.3296
2023-04-09T06:50:22.978Z,27.3039
2023-04-09T06:51:26.862Z,27.2927
2023-04-09T06:52:30.775Z,27.2910
2023-04-09T06:53:34.743Z,27.2819
2023-04-09T06:54:38.594Z,27.2753
2023-04-09T06:55:42.486Z,27.2497
2023-04-09T06:56:46.380Z,27.2503
2023-04-09T06:57:50.583Z,27.2533
2023-04-09T06:58:54.489Z,27.2601
2023-04-09T06:59:58.374Z,27.2540
2023-04-09T07:01:02.298Z,27.2632
2023-04-09T07:02:06.285Z,27.2623
2023-04-09T07:03:10.253Z,27.2507
2023-04-09T07:04:14.201Z,27.2403
2023-04-09T07:05:18.323Z,27.2500
2023-04-09T07:06:22.198Z,27.2456
2023-04-09T07:07:26.315Z,27.2065
2023-04-09T07:08:30.229Z,27.1635
2023-04-09T07:09:34.131Z,27.1606
2023-04-09T07:10:38.015Z,27.1481
2023-04-09T07:11:41.894Z,27.1321
2023-04-09T07:12:45.809Z,27.1053
2023-04-09T07:13:49.692Z,27.0822
2023-04-09T07:14:53.591Z,27.0930
2023-04-09T07:15:57.508Z,27.0807
2023-04-09T07:17:01.428Z,27.0843
2023-04-09T07:18:05.309Z,27.0626
2023-04-09T07:19:09.217Z,27.0428
2023-04-09T07:20:13.314Z,27.0513
2023-04-09T07:21:17.236Z,27.0521
2023-04-09T07:22:21.114Z,27.0750
2023-04-09T07:23:25.021Z,27.0557
2023-04-09T07:24:28.905Z,27.0479
2023-04-09T07:25:32.858Z,27.0513
2023-04-09T07:26:36.706Z,27.0559
2023-04-09T07:27:40.616Z,27.0303
2023-04-09T07:28:44.503Z,27.0342
2023-04-09T07:29:48.429Z,27.0221
2023-04-09T07:30:52.316Z,27.0038
2023-04-09T07:31:56.244Z,26.9925
2023-04-09T07:33:00.520Z,27.0016
2023-04-09T07:34:04.423Z,26.9808
2023-04-09T07:35:08.307Z,26.9846
2023-04-09T07:36:12.463Z,27.0010
2023-04-09T07:37:16.379Z,27.0108
2023-04-09T07:38:20.281Z,27.0004
2023-04-09T07:39:24.174Z,26.9948
2023-04-09T07:40:24.685Z,26.9781
2023-04-09T07:41:28.590Z,26.9816
2023-04-09T07:42:32.698Z,26.9747
2023-04-09T07:43:36.589Z,26.9653
2023-04-09T07:44:40.500Z,26.9703
2023-04-09T07:45:44.411Z,26.9693
2023-04-09T07:46:48.346Z,26.9735
2023-04-09T07:47:52.251Z,26.9742
2023-04-09T07:48:56.137Z,26.9677
2023-04-09T07:50:00.060Z,26.9442
2023-04-09T07:51:04.170Z,26.9301
2023-04-09T07:52:08.083Z,26.8924
2023-04-09T07:53:11.964Z,26.8498
2023-04-09T07:54:15.862Z,26.7992
2023-04-09T07:55:20.022Z,26.7685
2023-04-09T07:56:23.935Z,26.7545
2023-04-09T07:57:27.821Z,26.7419
2023-04-09T07:58:31.714Z,26.7286
2023-04-09T07:59:35.608Z,26.7557
2023-04-09T08:00:36.050Z,26.7951
2023-04-09T08:01:39.968Z,26.7885
2023-04-09T08:02:43.970Z,26.7566
2023-04-09T08:03:48.102Z,26.7221
2023-04-09T08:04:52.109Z,26.7182
2023-04-09T08:05:52.612Z,26.7125
2023-04-09T08:06:56.505Z,26.7550
2023-04-09T08:08:00.425Z,26.7610
2023-04-09T08:09:04.308Z,26.7577
2023-04-09T08:10:08.206Z,26.7458
2023-04-09T08:11:12.102Z,26.7443
2023-04-09T08:12:16.025Z,26.7061
2023-04-09T08:13:19.901Z,26.7165
2023-04-09T08:14:23.807Z,26.7380
2023-04-09T08:15:27.775Z,26.7542
2023-04-09T08:16:31.662Z,26.7557
2023-04-09T08:17:35.540Z,26.7386
2023-04-09T08:18:39.632Z,26.7191
2023-04-09T08:19:43.534Z,26.6915
2023-04-09T08:20:47.647Z,26.6335
2023-04-09T08:21:51.554Z,26.5867
2023-04-09T08:22:55.443Z,26.5400
2023-04-09T08:23:59.358Z,26.5265
2023-04-09T08:25:03.250Z,26.5355
2023-04-09T08:26:07.136Z,26.5628
2023-04-09T08:27:11.036Z,26.5928
2023-04-09T08:28:14.966Z,26.5666
2023-04-09T08:29:18.834Z,26.5427
2023-04-09T08:30:22.782Z,26.5070
2023-04-09T08:31:26.681Z,26.4754
2023-04-09T08:32:30.628Z,26.4946
2023-04-09T08:33:34.498Z,26.5238
2023-04-09T08:34:38.410Z,26.5408
2023-04-09T08:35:42.299Z,26.5397
2023-04-09T08:36:46.249Z,26.5352
2023-04-09T08:37:50.100Z,26.5897
2023-04-09T08:38:54.099Z,26.6278
2023-04-09T08:39:58.122Z,26.6514
2023-04-09T08:41:02.044Z,26.6537
2023-04-09T08:42:05.939Z,26.7189
2023-04-09T08:43:10.067Z,26.6552
2023-04-09T08:44:13.961Z,26.6585
2023-04-09T08:45:17.874Z,26.6666
2023-04-09T08:46:21.779Z,26.6607
2023-04-09T08:47:25.717Z,26.6697
2023-04-09T08:48:29.683Z,26.6670
2023-04-09T08:49:33.576Z,26.6562
2023-04-09T08:50:37.806Z,26.6470
2023-04-09T08:51:41.696Z,26.6162
2023-04-09T08:52:45.600Z,26.5928
2023-04-09T08:53:49.721Z,26.5917
2023-04-09T08:54:53.650Z,26.6003
2023-04-09T08:55:57.550Z,26.5870
2023-04-09T08:57:01.466Z,26.5706
2023-04-09T08:58:05.356Z,26.5710
2023-04-09T08:59:09.260Z,26.5696
2023-04-09T09:00:13.148Z,26.5843
2023-04-09T09:01:17.084Z,26.5497
2023-04-09T09:02:21.035Z,26.5440
2023-04-09T09:03:25.040Z,26.5603
2023-04-09T09:04:29.025Z,26.5370
2023-04-09T09:05:32.940Z,26.4875
2023-04-09T09:06:36.843Z,26.4496
2023-04-09T09:07:40.736Z,26.4136
2023-04-09T09:08:44.629Z,26.3660
2023-04-09T09:09:48.529Z,26.3411
2023-04-09T09:10:52.428Z,26.3305
2023-04-09T09:11:56.336Z,26.3393
2023-04-09T09:13:00.282Z,26.3152
2023-04-09T09:14:04.195Z,26.3701
2023-04-09T09:15:08.093Z,26.4219
2023-04-09T09:16:12.053Z,26.3781
2023-04-09T09:17:15.947Z,26.3298
2023-04-09T09:18:19.850Z,26.2835
2023-04-09T09:19:23.751Z,26.2413
2023-04-09T09:20:27.803Z,26.2322
2023-04-09T09:21:31.758Z,26.2300
2023-04-09T09:22:35.644Z,26.2002
2023-04-09T09:23:39.553Z,26.1641
2023-04-09T09:24:43.450Z,26.1657
2023-04-09T09:25:47.366Z,26.2155
2023-04-09T09:26:51.270Z,26.2335
2023-04-09T09:27:55.422Z,26.2628
2023-04-09T09:28:59.328Z,26.2700
2023-04-09T09:30:03.208Z,26.2253
2023-04-09T09:31:07.119Z,26.2464
2023-04-09T09:32:10.991Z,26.2751
2023-04-09T09:33:14.895Z,26.2277
2023-04-09T09:34:18.821Z,26.1692
2023-04-09T09:35:22.782Z,26.1831
2023-04-09T09:36:26.663Z,26.1775
2023-04-09T09:37:30.562Z,26.1464
2023-04-09T09:38:34.441Z,26.1423
2023-04-09T09:39:38.352Z,26.1538
2023-04-09T09:40:42.240Z,26.1368
2023-04-09T09:41:46.148Z,26.0874
2023-04-09T09:42:50.047Z,26.0300
2023-04-09T09:43:53.946Z,26.0222
2023-04-09T09:44:57.834Z,26.0103
2023-04-09T09:46:02.002Z,25.9913
2023-04-09T09:47:05.931Z,25.9801
2023-04-09T09:48:10.133Z,25.9840
2023-04-09T09:49:14.021Z,25.9402
2023-04-09T09:50:18.017Z,25.9249
2023-04-09T09:51:22.024Z,25.9019
2023-04-09T09:52:26.733Z,25.8951
2023-04-09T09:53:30.647Z,25.8867
2023-04-09T09:54:34.546Z,25.8862
2023-04-09T09:55:38.455Z,25.8916
2023-04-09T09:56:42.365Z,25.8879
2023-04-09T09:57:46.284Z,25.8715
2023-04-09T09:58:50.651Z,25.8452
2023-04-09T09:59:54.688Z,25.8587
2023-04-09T10:00:58.632Z,25.8522
2023-04-09T10:02:02.572Z,25.8491
2023-04-09T10:03:06.869Z,25.8556
2023-04-09T10:04:10.814Z,25.8439
2023-04-09T10:05:14.681Z,25.8677
2023-04-09T10:06:18.577Z,25.8650
2023-04-09T10:07:22.501Z,25.8665
2023-04-09T10:08:26.463Z,25.8645
2023-04-09T10:09:30.401Z,25.8489
2023-04-09T10:10:34.296Z,25.8308
2023-04-09T10:11:38.204Z,25.8290
2023-04-09T10:12:42.116Z,25.8329
2023-04-09T10:13:46.001Z,25.8215
2023-04-09T10:14:49.906Z,25.8102
2023-04-09T10:15:53.897Z,25.7868
2023-04-09T10:16:57.794Z,25.7720
2023-04-09T10:18:01.704Z,25.7457
2023-04-09T10:19:05.593Z,25.7122
2023-04-09T10:20:09.482Z,25.6876
2023-04-09T10:21:13.379Z,25.6840
2023-04-09T10:22:17.261Z,25.6794
2023-04-09T10:23:21.168Z,25.6895
2023-04-09T10:24:25.061Z,25.6904
2023-04-09T10:25:28.961Z,25.6927
2023-04-09T10:26:32.860Z,25.6909
2023-04-09T10:27:36.758Z,25.6592
2023-04-09T10:28:40.655Z,25.6407
2023-04-09T10:29:44.555Z,25.6458
2023-04-09T10:30:48.688Z,25.6582
2023-04-09T10:31:52.574Z,25.6322
2023-04-09T10:32:56.536Z,25.6308
2023-04-09T10:34:00.394Z,25.6555
2023-04-09T10:35:04.326Z,25.6393
2023-04-09T10:36:08.194Z,25.6070
2023-04-09T10:37:12.093Z,25.5978
2023-04-09T10:38:16.013Z,25.5762
2023-04-09T10:39:19.897Z,25.5341
2023-04-09T10:40:23.776Z,25.4986
2023-04-09T10:41:27.718Z,25.4649
2023-04-09T10:42:31.583Z,25.4350
2023-04-09T10:43:35.497Z,25.4396
2023-04-09T10:44:39.378Z,25.3921
2023-04-09T10:45:43.285Z,25.4098
2023-04-09T10:46:47.221Z,25.4481
2023-04-09T10:47:51.169Z,25.4251
2023-04-09T10:48:55.020Z,25.4289
2023-04-09T10:49:58.928Z,25.3760
2023-04-09T10:51:02.817Z,25.3906
2023-04-09T10:52:07.123Z,25.3686
2023-04-09T10:53:07.159Z,25.3256
2023-04-09T10:54:11.084Z,25.2324
2023-04-09T10:55:14.972Z,25.1561
2023-04-09T10:56:18.877Z,25.0616
2023-04-09T10:57:22.762Z,24.9927
2023-04-09T10:58:26.657Z,24.9764
2023-04-09T10:59:30.549Z,24.9779
2023-04-09T11:00:34.463Z,24.9101
2023-04-09T11:01:38.467Z,24.9251
2023-04-09T11:02:42.572Z,24.9339
2023-04-09T11:03:46.552Z,24.9064
2023-04-09T11:04:50.477Z,24.9240
2023-04-09T11:05:54.353Z,24.8923
2023-04-09T11:06:58.233Z,24.8268
2023-04-09T11:08:02.128Z,24.8156
2023-04-09T11:09:02.539Z,24.7862
2023-04-09T11:10:06.452Z,24.7822
2023-04-09T11:11:10.336Z,24.7624
2023-04-09T11:12:14.248Z,24.7289
2023-04-09T11:13:14.458Z,24.6614
2023-04-09T11:14:18.366Z,24.6400
2023-04-09T11:15:22.253Z,24.6536
2023-04-09T11:16:27.883Z,24.6699
2023-04-09T11:17:27.582Z,24.6254
2023-04-09T11:18:27.907Z,24.6156
2023-04-09T11:19:31.787Z,24.6157
2023-04-09T11:20:35.725Z,24.5986
2023-04-09T11:21:39.578Z,24.5695
2023-04-09T11:22:43.488Z,24.5246
2023-04-09T11:23:47.597Z,24.5016
2023-04-09T11:24:51.508Z,24.4855
2023-04-09T11:25:55.614Z,24.4716
2023-04-09T11:26:59.516Z,24.4415
2023-04-09T11:28:03.406Z,24.4236
2023-04-09T11:29:07.305Z,24.3914
2023-04-09T11:30:11.243Z,24.3909
2023-04-09T11:31:15.151Z,24.3871
2023-04-09T11:32:19.000Z,24.3800
2023-04-09T11:33:23.139Z,24.3548
2023-04-09T11:34:27.021Z,24.3343
2023-04-09T11:35:30.984Z,24.3950
2023-04-09T11:36:35.088Z,24.4593
2023-04-09T11:37:38.988Z,24.4330
2023-04-09T11:38:42.881Z,24.4360
2023-04-09T11:39:46.779Z,24.4810
2023-04-09T11:40:50.901Z,24.4834
2023-04-09T11:41:54.821Z,24.3948
2023-04-09T11:42:58.686Z,24.3882
2023-04-09T11:44:02.577Z,24.3742
2023-04-09T11:45:06.496Z,24.3248
2023-04-09T11:46:10.377Z,24.2990
2023-04-09T11:47:14.285Z,24.2294
2023-04-09T11:48:18.228Z,24.1988
2023-04-09T11:49:22.152Z,24.1636
2023-04-09T11:50:26.025Z,24.1180
2023-04-09T11:51:29.928Z,24.1088
2023-04-09T11:52:33.813Z,24.0755
2023-04-09T11:53:37.726Z,24.1084
2023-04-09T11:54:41.624Z,24.1214
2023-04-09T11:55:45.618Z,24.1223
2023-04-09T11:56:49.764Z,24.0964
2023-04-09T11:57:53.679Z,23.9837
2023-04-09T11:58:57.575Z,23.9541
2023-04-09T12:00:03.806Z,23.9004
2023-04-09T12:01:03.897Z,23.8860
2023-04-09T12:02:07.885Z,23.7632
2023-04-09T12:03:12.135Z,23.7816
2023-04-09T12:04:16.587Z,23.7167
2023-04-09T12:05:20.549Z,23.7165
2023-04-09T12:06:24.558Z,23.7333
2023-04-09T12:07:28.437Z,23.7565
2023-04-09T12:08:32.560Z,23.7852
2023-04-09T12:09:36.469Z,23.7650
2023-04-09T12:10:40.339Z,23.7548
2023-04-09T12:11:44.220Z,23.7157
2023-04-09T12:12:48.144Z,23.6720
2023-04-09T12:13:52.033Z,23.5884
2023-04-09T12:14:55.920Z,23.6386
2023-04-09T12:16:00.050Z,23.6233
2023-04-09T12:17:03.967Z,23.5974
2023-04-09T12:18:07.932Z,23.5447
2023-04-09T12:19:12.044Z,23.4981
2023-04-09T12:20:15.954Z,23.5418
2023-04-09T12:21:19.836Z,23.5553
2023-04-09T12:22:23.742Z,23.5620
2023-04-09T12:23:27.641Z,23.4825
2023-04-09T12:24:31.546Z,23.4986
2023-04-09T12:25:35.460Z,23.5404
2023-04-09T12:26:39.338Z,23.5587
2023-04-09T12:27:43.223Z,23.5609
2023-04-09T12:28:47.137Z,23.5582
2023-04-09T12:29:51.019Z,23.5278
2023-04-09T12:30:54.920Z,23.4682
2023-04-09T12:31:58.817Z,23.4507
2023-04-09T12:33:02.735Z,23.4379
2023-04-09T12:34:06.627Z,23.4750
2023-04-09T12:35:10.508Z,23.5719
2023-04-09T12:36:14.436Z,23.5517
2023-04-09T12:37:18.295Z,23.5097
2023-04-09T12:38:22.201Z,23.5998
2023-04-09T12:39:26.106Z,23.5835
2023-04-09T12:40:30.091Z,23.5482
2023-04-09T12:41:34.399Z,23.4533
2023-04-09T12:42:38.314Z,23.3934
2023-04-09T12:43:43.943Z,23.2915
2023-04-09T12:44:42.585Z,23.2306
2023-04-09T12:45:46.483Z,23.2391
2023-04-09T12:46:50.386Z,23.2967
2023-04-09T12:47:54.278Z,23.2580
2023-04-09T12:48:58.359Z,23.2974
2023-04-09T12:50:02.284Z,23.1874
2023-04-09T12:51:06.147Z,23.0735
2023-04-09T12:52:10.055Z,23.0606